sensor_id;sensor_type;location;lat;lon;timestamp;P1;durP1;ratioP1;P2;durP2;ratioP2
77276;SDS011;66330;52.166;9.978;2023-02-15T00:01:51;14.77;;;11.73;;
77276;SDS011;66330;52.166;9.978;2023-02-15T00:04:18;13.90;;;11.37;;
77276;SDS011;66330;52.166;9.978;2023-02-15T00:06:45;13.80;;;10.80;;
77276;SDS011;66330;52.166;9.978;2023-02-15T00:09:11;15.50;;;12.70;;
77276;SDS011;66330;52.166;9.978;2023-02-15T00:11:37;11.70;;;10.00;;
77276;SDS011;66330;52.166;9.978;2023-02-15T00:14:22;12.57;;;10.77;;
77276;SDS011;66330;52.166;9.978;2023-02-15T00:16:49;15.13;;;11.20;;
77276;SDS011;66330;52.166;9.978;2023-02-15T00:19:17;12.47;;;10.20;;
77276;SDS011;66330;52.166;9.978;2023-02-15T00:21:44;15.30;;;10.10;;
77276;SDS011;66330;52.166;9.978;2023-02-15T00:24:11;13.77;;;10.70;;
77276;SDS011;66330;52.166;9.978;2023-02-15T00:26:39;14.93;;;11.00;;
77276;SDS011;66330;52.166;9.978;2023-02-15T00:29:05;11.33;;;9.90;;
77276;SDS011;66330;52.166;9.978;2023-02-15T00:31:32;12.00;;;10.80;;
77276;SDS011;66330;52.166;9.978;2023-02-15T00:34:09;12.37;;;11.17;;
77276;SDS011;66330;52.166;9.978;2023-02-15T00:36:40;10.57;;;9.23;;
77276;SDS011;66330;52.166;9.978;2023-02-15T00:39:07;11.53;;;10.33;;
77276;SDS011;66330;52.166;9.978;2023-02-15T00:41:33;12.67;;;9.90;;
77276;SDS011;66330;52.166;9.978;2023-02-15T00:43:58;10.90;;;9.43;;
77276;SDS011;66330;52.166;9.978;2023-02-15T00:46:24;11.90;;;10.70;;
77276;SDS011;66330;52.166;9.978;2023-02-15T00:48:50;13.10;;;10.60;;
77276;SDS011;66330;52.166;9.978;2023-02-15T00:51:16;13.10;;;10.97;;
77276;SDS011;66330;52.166;9.978;2023-02-15T00:53:42;11.03;;;9.80;;
77276;SDS011;66330;52.166;9.978;2023-02-15T00:56:09;10.90;;;9.47;;
77276;SDS011;66330;52.166;9.978;2023-02-15T00:58:35;12.77;;;10.27;;
77276;SDS011;66330;52.166;9.978;2023-02-15T01:01:05;15.83;;;10.90;;
77276;SDS011;66330;52.166;9.978;2023-02-15T01:03:32;12.50;;;10.50;;
77276;SDS011;66330;52.166;9.978;2023-02-15T01:05:58;11.37;;;8.90;;
77276;SDS011;66330;52.166;9.978;2023-02-15T01:08:24;11.30;;;9.10;;
77276;SDS011;66330;52.166;9.978;2023-02-15T01:10:50;11.67;;;10.37;;
77276;SDS011;66330;52.166;9.978;2023-02-15T01:13:16;10.73;;;9.47;;
77276;SDS011;66330;52.166;9.978;2023-02-15T01:15:42;12.10;;;9.63;;
77276;SDS011;66330;52.166;9.978;2023-02-15T01:18:09;12.80;;;11.50;;
77276;SDS011;66330;52.166;9.978;2023-02-15T01:20:36;12.67;;;10.70;;
77276;SDS011;66330;52.166;9.978;2023-02-15T01:23:04;13.23;;;11.87;;
77276;SDS011;66330;52.166;9.978;2023-02-15T01:25:32;12.80;;;10.60;;
77276;SDS011;66330;52.166;9.978;2023-02-15T01:27:59;10.23;;;9.23;;
77276;SDS011;66330;52.166;9.978;2023-02-15T01:30:24;12.50;;;11.20;;
77276;SDS011;66330;52.166;9.978;2023-02-15T01:32:50;11.00;;;9.87;;
77276;SDS011;66330;52.166;9.978;2023-02-15T01:35:15;12.80;;;11.60;;
77276;SDS011;66330;52.166;9.978;2023-02-15T01:37:41;10.83;;;9.50;;
77276;SDS011;66330;52.166;9.978;2023-02-15T01:40:08;12.97;;;10.70;;
77276;SDS011;66330;52.166;9.978;2023-02-15T01:42:37;13.23;;;11.30;;
77276;SDS011;66330;52.166;9.978;2023-02-15T01:45:04;12.93;;;10.90;;
77276;SDS011;66330;52.166;9.978;2023-02-15T01:47:44;12.10;;;10.73;;
77276;SDS011;66330;52.166;9.978;2023-02-15T01:50:20;11.07;;;10.00;;
77276;SDS011;66330;52.166;9.978;2023-02-15T01:52:52;12.10;;;10.60;;
77276;SDS011;66330;52.166;9.978;2023-02-15T01:55:28;13.80;;;10.70;;
77276;SDS011;66330;52.166;9.978;2023-02-15T01:57:59;13.20;;;11.00;;
77276;SDS011;66330;52.166;9.978;2023-02-15T02:00:25;13.03;;;10.30;;
77276;SDS011;66330;52.166;9.978;2023-02-15T02:02:52;11.73;;;10.40;;
77276;SDS011;66330;52.166;9.978;2023-02-15T02:05:20;12.83;;;10.47;;
77276;SDS011;66330;52.166;9.978;2023-02-15T02:07:46;12.33;;;9.90;;
77276;SDS011;66330;52.166;9.978;2023-02-15T02:10:16;14.07;;;10.67;;
77276;SDS011;66330;52.166;9.978;2023-02-15T02:12:44;11.03;;;9.90;;
77276;SDS011;66330;52.166;9.978;2023-02-15T02:15:12;13.57;;;10.50;;
77276;SDS011;66330;52.166;9.978;2023-02-15T02:17:52;14.50;;;11.13;;
77276;SDS011;66330;52.166;9.978;2023-02-15T02:20:38;12.33;;;10.83;;
77276;SDS011;66330;52.166;9.978;2023-02-15T02:35:01;11.83;;;10.63;;
77276;SDS011;66330;52.166;9.978;2023-02-15T02:40:14;13.20;;;10.30;;
77276;SDS011;66330;52.166;9.978;2023-02-15T02:45:35;12.53;;;11.17;;
77276;SDS011;66330;52.166;9.978;2023-02-15T02:48:24;14.17;;;12.40;;
77276;SDS011;66330;52.166;9.978;2023-02-15T02:50:52;10.80;;;9.70;;
77276;SDS011;66330;52.166;9.978;2023-02-15T02:53:18;12.90;;;11.33;;
77276;SDS011;66330;52.166;9.978;2023-02-15T02:58:14;13.63;;;12.13;;
77276;SDS011;66330;52.166;9.978;2023-02-15T03:05:48;13.03;;;10.97;;
77276;SDS011;66330;52.166;9.978;2023-02-15T03:08:18;12.00;;;10.17;;
77276;SDS011;66330;52.166;9.978;2023-02-15T03:10:47;13.53;;;11.13;;
77276;SDS011;66330;52.166;9.978;2023-02-15T03:13:16;15.07;;;11.10;;
77276;SDS011;66330;52.166;9.978;2023-02-15T03:15:42;12.70;;;11.40;;
77276;SDS011;66330;52.166;9.978;2023-02-15T03:18:31;11.17;;;9.10;;
77276;SDS011;66330;52.166;9.978;2023-02-15T03:21:03;12.23;;;9.87;;
77276;SDS011;66330;52.166;9.978;2023-02-15T03:23:32;11.87;;;10.67;;
77276;SDS011;66330;52.166;9.978;2023-02-15T03:26:00;12.20;;;10.90;;
77276;SDS011;66330;52.166;9.978;2023-02-15T03:28:46;12.40;;;10.97;;
77276;SDS011;66330;52.166;9.978;2023-02-15T03:31:15;11.40;;;10.20;;
77276;SDS011;66330;52.166;9.978;2023-02-15T03:33:52;12.40;;;10.60;;
77276;SDS011;66330;52.166;9.978;2023-02-15T03:36:33;12.40;;;10.80;;
77276;SDS011;66330;52.166;9.978;2023-02-15T03:39:21;12.67;;;11.33;;
77276;SDS011;66330;52.166;9.978;2023-02-15T03:42:02;12.20;;;10.80;;
77276;SDS011;66330;52.166;9.978;2023-02-15T03:44:41;12.13;;;10.10;;
77276;SDS011;66330;52.166;9.978;2023-02-15T03:47:27;12.80;;;10.67;;
77276;SDS011;66330;52.166;9.978;2023-02-15T03:50:09;12.17;;;10.10;;
77276;SDS011;66330;52.166;9.978;2023-02-15T03:52:59;12.80;;;10.40;;
77276;SDS011;66330;52.166;9.978;2023-02-15T03:55:28;13.53;;;11.07;;
77276;SDS011;66330;52.166;9.978;2023-02-15T03:57:54;13.00;;;11.47;;
77276;SDS011;66330;52.166;9.978;2023-02-15T04:00:39;13.60;;;11.67;;
77276;SDS011;66330;52.166;9.978;2023-02-15T04:03:39;13.37;;;11.63;;
77276;SDS011;66330;52.166;9.978;2023-02-15T04:06:07;15.10;;;13.10;;
77276;SDS011;66330;52.166;9.978;2023-02-15T04:08:33;15.80;;;12.90;;
77276;SDS011;66330;52.166;9.978;2023-02-15T04:11:17;14.57;;;12.00;;
77276;SDS011;66330;52.166;9.978;2023-02-15T04:13:43;15.67;;;12.60;;
77276;SDS011;66330;52.166;9.978;2023-02-15T04:16:09;14.07;;;12.10;;
77276;SDS011;66330;52.166;9.978;2023-02-15T04:18:41;15.33;;;12.07;;
77276;SDS011;66330;52.166;9.978;2023-02-15T04:21:27;16.10;;;13.47;;
77276;SDS011;66330;52.166;9.978;2023-02-15T04:24:12;16.57;;;14.07;;
77276;SDS011;66330;52.166;9.978;2023-02-15T04:26:58;18.73;;;13.67;;
77276;SDS011;66330;52.166;9.978;2023-02-15T04:29:25;13.87;;;12.00;;
77276;SDS011;66330;52.166;9.978;2023-02-15T04:31:52;14.17;;;11.33;;
77276;SDS011;66330;52.166;9.978;2023-02-15T04:34:19;12.67;;;10.80;;
77276;SDS011;66330;52.166;9.978;2023-02-15T04:36:45;16.27;;;11.83;;
77276;SDS011;66330;52.166;9.978;2023-02-15T04:39:14;13.70;;;11.50;;
77276;SDS011;66330;52.166;9.978;2023-02-15T04:41:40;13.70;;;10.90;;
77276;SDS011;66330;52.166;9.978;2023-02-15T04:44:06;14.07;;;11.57;;
77276;SDS011;66330;52.166;9.978;2023-02-15T04:46:32;17.33;;;12.70;;
77276;SDS011;66330;52.166;9.978;2023-02-15T04:48:57;15.47;;;12.80;;
77276;SDS011;66330;52.166;9.978;2023-02-15T04:51:23;14.80;;;12.23;;
77276;SDS011;66330;52.166;9.978;2023-02-15T04:53:49;14.30;;;11.27;;
77276;SDS011;66330;52.166;9.978;2023-02-15T04:56:17;18.60;;;12.80;;
77276;SDS011;66330;52.166;9.978;2023-02-15T04:58:43;22.17;;;19.20;;
77276;SDS011;66330;52.166;9.978;2023-02-15T05:01:09;17.03;;;15.23;;
77276;SDS011;66330;52.166;9.978;2023-02-15T05:03:35;15.47;;;11.60;;
77276;SDS011;66330;52.166;9.978;2023-02-15T05:06:01;14.67;;;12.50;;
77276;SDS011;66330;52.166;9.978;2023-02-15T05:08:29;14.97;;;13.07;;
77276;SDS011;66330;52.166;9.978;2023-02-15T05:10:55;15.03;;;13.43;;
77276;SDS011;66330;52.166;9.978;2023-02-15T05:13:21;14.80;;;12.10;;
77276;SDS011;66330;52.166;9.978;2023-02-15T05:15:50;16.90;;;12.90;;
77276;SDS011;66330;52.166;9.978;2023-02-15T05:18:18;14.57;;;13.10;;
77276;SDS011;66330;52.166;9.978;2023-02-15T05:20:44;19.40;;;16.10;;
77276;SDS011;66330;52.166;9.978;2023-02-15T05:23:10;21.20;;;15.03;;
77276;SDS011;66330;52.166;9.978;2023-02-15T05:25:36;15.97;;;13.07;;
77276;SDS011;66330;52.166;9.978;2023-02-15T05:28:20;15.47;;;13.53;;
77276;SDS011;66330;52.166;9.978;2023-02-15T05:30:51;20.63;;;16.10;;
77276;SDS011;66330;52.166;9.978;2023-02-15T05:33:27;25.30;;;18.83;;
77276;SDS011;66330;52.166;9.978;2023-02-15T05:35:53;15.93;;;13.33;;
77276;SDS011;66330;52.166;9.978;2023-02-15T05:38:19;16.43;;;13.23;;
77276;SDS011;66330;52.166;9.978;2023-02-15T05:40:44;14.77;;;11.40;;
77276;SDS011;66330;52.166;9.978;2023-02-15T05:43:10;13.87;;;10.57;;
77276;SDS011;66330;52.166;9.978;2023-02-15T05:45:35;16.00;;;12.20;;
77276;SDS011;66330;52.166;9.978;2023-02-15T05:48:01;17.30;;;15.23;;
77276;SDS011;66330;52.166;9.978;2023-02-15T05:50:26;14.80;;;11.67;;
77276;SDS011;66330;52.166;9.978;2023-02-15T05:52:52;14.37;;;11.33;;
77276;SDS011;66330;52.166;9.978;2023-02-15T05:55:18;12.57;;;10.17;;
77276;SDS011;66330;52.166;9.978;2023-02-15T05:57:44;10.73;;;9.50;;
77276;SDS011;66330;52.166;9.978;2023-02-15T06:00:09;14.90;;;11.73;;
77276;SDS011;66330;52.166;9.978;2023-02-15T06:02:36;12.20;;;10.70;;
77276;SDS011;66330;52.166;9.978;2023-02-15T06:05:03;15.43;;;10.70;;
77276;SDS011;66330;52.166;9.978;2023-02-15T06:07:30;14.07;;;12.20;;
77276;SDS011;66330;52.166;9.978;2023-02-15T06:09:56;14.83;;;11.30;;
77276;SDS011;66330;52.166;9.978;2023-02-15T06:12:22;11.70;;;10.43;;
77276;SDS011;66330;52.166;9.978;2023-02-15T06:14:48;15.43;;;12.67;;
77276;SDS011;66330;52.166;9.978;2023-02-15T06:17:14;14.50;;;11.00;;
77276;SDS011;66330;52.166;9.978;2023-02-15T06:19:39;15.93;;;12.83;;
77276;SDS011;66330;52.166;9.978;2023-02-15T06:22:05;16.13;;;11.13;;
77276;SDS011;66330;52.166;9.978;2023-02-15T06:24:31;14.57;;;11.03;;
77276;SDS011;66330;52.166;9.978;2023-02-15T06:26:57;13.60;;;12.20;;
77276;SDS011;66330;52.166;9.978;2023-02-15T06:29:22;14.63;;;12.43;;
77276;SDS011;66330;52.166;9.978;2023-02-15T06:31:48;14.57;;;12.60;;
77276;SDS011;66330;52.166;9.978;2023-02-15T06:34:14;15.70;;;11.30;;
77276;SDS011;66330;52.166;9.978;2023-02-15T06:36:39;14.63;;;11.70;;
77276;SDS011;66330;52.166;9.978;2023-02-15T06:39:05;13.90;;;12.33;;
77276;SDS011;66330;52.166;9.978;2023-02-15T06:41:31;14.50;;;13.00;;
77276;SDS011;66330;52.166;9.978;2023-02-15T06:43:56;14.17;;;10.83;;
77276;SDS011;66330;52.166;9.978;2023-02-15T06:46:22;14.73;;;11.57;;
77276;SDS011;66330;52.166;9.978;2023-02-15T06:48:48;13.70;;;10.57;;
77276;SDS011;66330;52.166;9.978;2023-02-15T06:51:13;15.30;;;10.37;;
77276;SDS011;66330;52.166;9.978;2023-02-15T06:53:39;12.53;;;10.53;;
77276;SDS011;66330;52.166;9.978;2023-02-15T06:56:08;14.27;;;11.40;;
77276;SDS011;66330;52.166;9.978;2023-02-15T06:58:37;13.93;;;10.77;;
77276;SDS011;66330;52.166;9.978;2023-02-15T07:01:06;12.83;;;11.40;;
77276;SDS011;66330;52.166;9.978;2023-02-15T07:03:32;14.50;;;11.10;;
77276;SDS011;66330;52.166;9.978;2023-02-15T07:05:59;12.67;;;11.43;;
77276;SDS011;66330;52.166;9.978;2023-02-15T07:08:26;13.83;;;11.93;;
77276;SDS011;66330;52.166;9.978;2023-02-15T07:10:53;17.00;;;15.17;;
77276;SDS011;66330;52.166;9.978;2023-02-15T07:13:20;14.80;;;12.90;;
77276;SDS011;66330;52.166;9.978;2023-02-15T07:15:46;14.60;;;12.27;;
77276;SDS011;66330;52.166;9.978;2023-02-15T07:18:12;15.87;;;13.40;;
77276;SDS011;66330;52.166;9.978;2023-02-15T07:20:38;14.30;;;12.80;;
77276;SDS011;66330;52.166;9.978;2023-02-15T07:23:06;17.83;;;14.63;;
77276;SDS011;66330;52.166;9.978;2023-02-15T07:25:33;15.00;;;12.33;;
77276;SDS011;66330;52.166;9.978;2023-02-15T07:27:59;12.73;;;11.50;;
77276;SDS011;66330;52.166;9.978;2023-02-15T07:30:26;14.57;;;12.07;;
77276;SDS011;66330;52.166;9.978;2023-02-15T07:32:56;15.57;;;12.77;;
77276;SDS011;66330;52.166;9.978;2023-02-15T07:35:51;13.97;;;11.97;;
77276;SDS011;66330;52.166;9.978;2023-02-15T07:38:25;13.80;;;11.97;;
77276;SDS011;66330;52.166;9.978;2023-02-15T07:40:57;16.17;;;12.47;;
77276;SDS011;66330;52.166;9.978;2023-02-15T07:43:27;13.90;;;11.83;;
77276;SDS011;66330;52.166;9.978;2023-02-15T07:45:54;13.87;;;12.40;;
77276;SDS011;66330;52.166;9.978;2023-02-15T07:48:19;12.87;;;11.50;;
77276;SDS011;66330;52.166;9.978;2023-02-15T07:50:45;12.90;;;11.63;;
77276;SDS011;66330;52.166;9.978;2023-02-15T07:53:11;11.60;;;10.40;;
77276;SDS011;66330;52.166;9.978;2023-02-15T07:55:36;11.33;;;10.13;;
77276;SDS011;66330;52.166;9.978;2023-02-15T07:58:02;13.43;;;12.03;;
77276;SDS011;66330;52.166;9.978;2023-02-15T08:00:27;11.33;;;9.50;;
77276;SDS011;66330;52.166;9.978;2023-02-15T08:02:54;10.33;;;9.33;;
77276;SDS011;66330;52.166;9.978;2023-02-15T08:05:39;10.83;;;9.63;;
77276;SDS011;66330;52.166;9.978;2023-02-15T08:08:07;9.33;;;8.47;;
77276;SDS011;66330;52.166;9.978;2023-02-15T08:10:33;9.57;;;8.60;;
77276;SDS011;66330;52.166;9.978;2023-02-15T08:13:19;10.00;;;9.00;;
77276;SDS011;66330;52.166;9.978;2023-02-15T08:15:51;9.60;;;8.60;;
77276;SDS011;66330;52.166;9.978;2023-02-15T08:18:16;8.97;;;8.07;;
77276;SDS011;66330;52.166;9.978;2023-02-15T08:20:42;9.00;;;8.10;;
77276;SDS011;66330;52.166;9.978;2023-02-15T08:23:13;8.10;;;7.30;;
77276;SDS011;66330;52.166;9.978;2023-02-15T08:25:38;7.97;;;7.17;;
77276;SDS011;66330;52.166;9.978;2023-02-15T08:28:04;8.73;;;7.93;;
77276;SDS011;66330;52.166;9.978;2023-02-15T08:30:30;10.20;;;9.20;;
77276;SDS011;66330;52.166;9.978;2023-02-15T08:32:55;8.77;;;7.97;;
77276;SDS011;66330;52.166;9.978;2023-02-15T08:35:21;8.30;;;7.50;;
77276;SDS011;66330;52.166;9.978;2023-02-15T08:37:46;8.53;;;7.40;;
77276;SDS011;66330;52.166;9.978;2023-02-15T08:40:12;8.60;;;7.70;;
77276;SDS011;66330;52.166;9.978;2023-02-15T08:42:38;8.40;;;7.60;;
77276;SDS011;66330;52.166;9.978;2023-02-15T08:45:04;9.47;;;8.57;;
77276;SDS011;66330;52.166;9.978;2023-02-15T08:47:30;7.53;;;6.60;;
77276;SDS011;66330;52.166;9.978;2023-02-15T08:49:55;8.10;;;7.20;;
77276;SDS011;66330;52.166;9.978;2023-02-15T08:52:21;8.07;;;7.27;;
77276;SDS011;66330;52.166;9.978;2023-02-15T08:54:47;8.10;;;7.30;;
77276;SDS011;66330;52.166;9.978;2023-02-15T08:57:12;7.93;;;7.03;;
77276;SDS011;66330;52.166;9.978;2023-02-15T08:59:38;8.40;;;7.60;;
77276;SDS011;66330;52.166;9.978;2023-02-15T09:02:03;8.67;;;6.60;;
77276;SDS011;66330;52.166;9.978;2023-02-15T09:04:29;7.90;;;7.10;;
77276;SDS011;66330;52.166;9.978;2023-02-15T09:06:54;6.50;;;5.90;;
77276;SDS011;66330;52.166;9.978;2023-02-15T09:09:20;7.90;;;7.10;;
77276;SDS011;66330;52.166;9.978;2023-02-15T09:11:47;7.50;;;6.70;;
77276;SDS011;66330;52.166;9.978;2023-02-15T09:14:16;6.13;;;5.63;;
77276;SDS011;66330;52.166;9.978;2023-02-15T09:16:45;6.37;;;5.77;;
77276;SDS011;66330;52.166;9.978;2023-02-15T09:19:13;6.30;;;5.70;;
77276;SDS011;66330;52.166;9.978;2023-02-15T09:21:40;6.00;;;5.50;;
77276;SDS011;66330;52.166;9.978;2023-02-15T09:24:07;7.20;;;6.50;;
77276;SDS011;66330;52.166;9.978;2023-02-15T09:26:36;6.10;;;5.60;;
77276;SDS011;66330;52.166;9.978;2023-02-15T09:29:06;6.30;;;5.70;;
77276;SDS011;66330;52.166;9.978;2023-02-15T09:31:33;6.40;;;5.80;;
77276;SDS011;66330;52.166;9.978;2023-02-15T09:34:02;7.17;;;6.47;;
77276;SDS011;66330;52.166;9.978;2023-02-15T09:36:32;6.47;;;5.87;;
77276;SDS011;66330;52.166;9.978;2023-02-15T09:39:12;5.27;;;4.80;;
77276;SDS011;66330;52.166;9.978;2023-02-15T10:06:42;6.10;;;5.50;;
77276;SDS011;66330;52.166;9.978;2023-02-15T10:11:59;6.13;;;5.63;;
77276;SDS011;66330;52.166;9.978;2023-02-15T10:26:11;6.90;;;6.30;;
77276;SDS011;66330;52.166;9.978;2023-02-15T10:28:55;6.67;;;6.07;;
77276;SDS011;66330;52.166;9.978;2023-02-15T10:34:14;6.23;;;5.70;;
77276;SDS011;66330;52.166;9.978;2023-02-15T10:53:29;6.80;;;6.20;;
77276;SDS011;66330;52.166;9.978;2023-02-15T10:56:09;6.80;;;6.20;;
77276;SDS011;66330;52.166;9.978;2023-02-15T11:01:37;6.60;;;6.00;;
77276;SDS011;66330;52.166;9.978;2023-02-15T11:06:49;6.50;;;5.70;;
77276;SDS011;66330;52.166;9.978;2023-02-15T11:09:18;7.13;;;6.53;;
77276;SDS011;66330;52.166;9.978;2023-02-15T11:11:50;7.10;;;6.50;;
77276;SDS011;66330;52.166;9.978;2023-02-15T11:14:23;6.40;;;5.90;;
77276;SDS011;66330;52.166;9.978;2023-02-15T11:17:09;7.23;;;6.67;;
77276;SDS011;66330;52.166;9.978;2023-02-15T11:20:08;7.03;;;6.33;;
77276;SDS011;66330;52.166;9.978;2023-02-15T11:22:42;7.00;;;6.40;;
77276;SDS011;66330;52.166;9.978;2023-02-15T11:25:17;7.20;;;6.60;;
77276;SDS011;66330;52.166;9.978;2023-02-15T11:28:04;7.73;;;7.03;;
77276;SDS011;66330;52.166;9.978;2023-02-15T11:30:41;7.63;;;7.13;;
77276;SDS011;66330;52.166;9.978;2023-02-15T11:36:15;6.97;;;6.40;;
77276;SDS011;66330;52.166;9.978;2023-02-15T11:38:45;7.00;;;6.40;;
77276;SDS011;66330;52.166;9.978;2023-02-15T11:41:15;7.90;;;7.10;;
77276;SDS011;66330;52.166;9.978;2023-02-15T11:43:53;7.20;;;6.60;;
77276;SDS011;66330;52.166;9.978;2023-02-15T11:46:22;6.30;;;5.80;;
77276;SDS011;66330;52.166;9.978;2023-02-15T11:48:48;7.30;;;6.70;;
77276;SDS011;66330;52.166;9.978;2023-02-15T11:51:16;7.20;;;6.60;;
77276;SDS011;66330;52.166;9.978;2023-02-15T11:53:43;7.80;;;7.00;;
77276;SDS011;66330;52.166;9.978;2023-02-15T11:56:14;11.37;;;6.93;;
77276;SDS011;66330;52.166;9.978;2023-02-15T12:01:30;8.67;;;7.97;;
77276;SDS011;66330;52.166;9.978;2023-02-15T12:04:02;7.43;;;6.83;;
77276;SDS011;66330;52.166;9.978;2023-02-15T12:06:53;7.60;;;7.00;;
77276;SDS011;66330;52.166;9.978;2023-02-15T12:12:30;7.70;;;7.10;;
77276;SDS011;66330;52.166;9.978;2023-02-15T12:14:58;7.60;;;6.90;;
77276;SDS011;66330;52.166;9.978;2023-02-15T12:17:31;7.53;;;6.93;;
77276;SDS011;66330;52.166;9.978;2023-02-15T12:20:00;8.00;;;7.30;;
77276;SDS011;66330;52.166;9.978;2023-02-15T12:22:29;7.60;;;7.00;;
77276;SDS011;66330;52.166;9.978;2023-02-15T12:25:01;8.10;;;7.50;;
77276;SDS011;66330;52.166;9.978;2023-02-15T12:27:30;8.13;;;7.43;;
77276;SDS011;66330;52.166;9.978;2023-02-15T12:32:35;7.80;;;7.00;;
77276;SDS011;66330;52.166;9.978;2023-02-15T12:35:21;8.30;;;7.60;;
77276;SDS011;66330;52.166;9.978;2023-02-15T12:37:55;8.00;;;7.40;;
77276;SDS011;66330;52.166;9.978;2023-02-15T12:40:45;9.33;;;8.10;;
77276;SDS011;66330;52.166;9.978;2023-02-15T12:43:30;9.40;;;8.60;;
77276;SDS011;66330;52.166;9.978;2023-02-15T12:48:51;8.10;;;7.50;;
77276;SDS011;66330;52.166;9.978;2023-02-15T12:54:17;8.90;;;8.10;;
77276;SDS011;66330;52.166;9.978;2023-02-15T12:56:49;9.30;;;8.50;;
77276;SDS011;66330;52.166;9.978;2023-02-15T12:59:14;9.13;;;8.43;;
77276;SDS011;66330;52.166;9.978;2023-02-15T13:01:41;9.13;;;8.33;;
77276;SDS011;66330;52.166;9.978;2023-02-15T13:04:26;9.53;;;8.73;;
77276;SDS011;66330;52.166;9.978;2023-02-15T13:07:01;8.33;;;7.70;;
77276;SDS011;66330;52.166;9.978;2023-02-15T13:11:56;10.70;;;9.70;;
77276;SDS011;66330;52.166;9.978;2023-02-15T13:14:33;9.30;;;8.50;;
77276;SDS011;66330;52.166;9.978;2023-02-15T13:17:00;11.67;;;10.57;;
77276;SDS011;66330;52.166;9.978;2023-02-15T13:19:39;9.87;;;8.97;;
77276;SDS011;66330;52.166;9.978;2023-02-15T13:22:10;9.10;;;8.30;;
77276;SDS011;66330;52.166;9.978;2023-02-15T13:24:41;8.50;;;7.73;;
77276;SDS011;66330;52.166;9.978;2023-02-15T13:27:12;10.57;;;9.73;;
77276;SDS011;66330;52.166;9.978;2023-02-15T13:29:43;9.77;;;8.97;;
77276;SDS011;66330;52.166;9.978;2023-02-15T13:32:27;10.27;;;9.27;;
77276;SDS011;66330;52.166;9.978;2023-02-15T13:34:59;9.00;;;8.30;;
77276;SDS011;66330;52.166;9.978;2023-02-15T13:37:41;8.67;;;8.00;;
77276;SDS011;66330;52.166;9.978;2023-02-15T13:51:14;7.97;;;7.27;;
77276;SDS011;66330;52.166;9.978;2023-02-15T13:56:44;9.03;;;8.30;;
77276;SDS011;66330;52.166;9.978;2023-02-15T14:05:15;9.70;;;8.90;;
77276;SDS011;66330;52.166;9.978;2023-02-15T14:08:28;12.23;;;11.10;;
77276;SDS011;66330;52.166;9.978;2023-02-15T14:22:32;10.40;;;9.50;;
77276;SDS011;66330;52.166;9.978;2023-02-15T14:30:49;10.33;;;9.33;;
77276;SDS011;66330;52.166;9.978;2023-02-15T14:33:35;10.17;;;9.17;;
77276;SDS011;66330;52.166;9.978;2023-02-15T14:36:06;10.20;;;9.30;;
77276;SDS011;66330;52.166;9.978;2023-02-15T14:44:13;10.00;;;9.00;;
77276;SDS011;66330;52.166;9.978;2023-02-15T14:49:44;10.03;;;9.13;;
77276;SDS011;66330;52.166;9.978;2023-02-15T14:52:10;10.80;;;9.80;;
77276;SDS011;66330;52.166;9.978;2023-02-15T15:02:21;10.17;;;8.77;;
77276;SDS011;66330;52.166;9.978;2023-02-15T15:12:54;10.90;;;9.60;;
77276;SDS011;66330;52.166;9.978;2023-02-15T15:25:40;10.33;;;9.30;;
77276;SDS011;66330;52.166;9.978;2023-02-15T15:31:16;10.97;;;9.73;;
77276;SDS011;66330;52.166;9.978;2023-02-15T15:39:56;11.30;;;10.20;;
77276;SDS011;66330;52.166;9.978;2023-02-15T15:48:01;10.70;;;9.70;;
77276;SDS011;66330;52.166;9.978;2023-02-15T15:50:31;9.20;;;8.30;;
77276;SDS011;66330;52.166;9.978;2023-02-15T15:52:59;10.53;;;9.50;;
77276;SDS011;66330;52.166;9.978;2023-02-15T15:55:30;9.30;;;8.40;;
77276;SDS011;66330;52.166;9.978;2023-02-15T15:58:06;10.73;;;9.63;;
77276;SDS011;66330;52.166;9.978;2023-02-15T16:03:48;12.07;;;10.63;;
77276;SDS011;66330;52.166;9.978;2023-02-15T16:06:25;15.40;;;13.90;;
77276;SDS011;66330;52.166;9.978;2023-02-15T16:08:52;9.83;;;8.83;;
77276;SDS011;66330;52.166;9.978;2023-02-15T16:11:21;10.40;;;9.30;;
77276;SDS011;66330;52.166;9.978;2023-02-15T16:13:52;10.23;;;8.53;;
77276;SDS011;66330;52.166;9.978;2023-02-15T16:16:21;8.63;;;7.73;;
77276;SDS011;66330;52.166;9.978;2023-02-15T16:18:53;10.70;;;8.93;;
77276;SDS011;66330;52.166;9.978;2023-02-15T16:21:32;9.67;;;8.77;;
77276;SDS011;66330;52.166;9.978;2023-02-15T16:27:34;10.30;;;9.30;;
77276;SDS011;66330;52.166;9.978;2023-02-15T16:29:48;9.53;;;8.57;;
77276;SDS011;66330;52.166;9.978;2023-02-15T16:32:23;10.90;;;9.90;;
77276;SDS011;66330;52.166;9.978;2023-02-15T16:34:53;11.70;;;9.93;;
77276;SDS011;66330;52.166;9.978;2023-02-15T16:37:21;12.50;;;9.93;;
77276;SDS011;66330;52.166;9.978;2023-02-15T16:39:52;14.13;;;10.43;;
77276;SDS011;66330;52.166;9.978;2023-02-15T16:42:19;10.30;;;9.20;;
77276;SDS011;66330;52.166;9.978;2023-02-15T16:44:46;9.80;;;8.80;;
77276;SDS011;66330;52.166;9.978;2023-02-15T16:47:25;12.10;;;10.03;;
77276;SDS011;66330;52.166;9.978;2023-02-15T16:49:54;11.10;;;9.90;;
77276;SDS011;66330;52.166;9.978;2023-02-15T16:52:24;11.63;;;9.97;;
77276;SDS011;66330;52.166;9.978;2023-02-15T16:54:55;10.57;;;9.47;;
77276;SDS011;66330;52.166;9.978;2023-02-15T16:57:24;9.90;;;8.90;;
77276;SDS011;66330;52.166;9.978;2023-02-15T17:00:07;12.23;;;9.87;;
77276;SDS011;66330;52.166;9.978;2023-02-15T17:02:52;15.13;;;9.87;;
77276;SDS011;66330;52.166;9.978;2023-02-15T17:05:19;10.50;;;9.47;;
77276;SDS011;66330;52.166;9.978;2023-02-15T17:10:32;10.70;;;9.60;;
77276;SDS011;66330;52.166;9.978;2023-02-15T17:13:09;12.13;;;10.27;;
77276;SDS011;66330;52.166;9.978;2023-02-15T17:16:08;12.57;;;10.67;;
77276;SDS011;66330;52.166;9.978;2023-02-15T17:18:28;12.97;;;11.57;;
77276;SDS011;66330;52.166;9.978;2023-02-15T17:20:59;12.70;;;10.50;;
77276;SDS011;66330;52.166;9.978;2023-02-15T17:23:34;11.93;;;10.73;;
77276;SDS011;66330;52.166;9.978;2023-02-15T17:26:11;24.53;;;15.63;;
77276;SDS011;66330;52.166;9.978;2023-02-15T17:28:47;18.23;;;14.37;;
77276;SDS011;66330;52.166;9.978;2023-02-15T17:31:16;18.70;;;12.70;;
77276;SDS011;66330;52.166;9.978;2023-02-15T17:33:43;13.93;;;11.53;;
77276;SDS011;66330;52.166;9.978;2023-02-15T17:36:22;14.57;;;10.87;;
77276;SDS011;66330;52.166;9.978;2023-02-15T17:41:25;17.17;;;14.93;;
77276;SDS011;66330;52.166;9.978;2023-02-15T17:43:53;17.17;;;14.57;;
77276;SDS011;66330;52.166;9.978;2023-02-15T17:46:18;16.03;;;14.17;;
77276;SDS011;66330;52.166;9.978;2023-02-15T17:48:47;17.80;;;14.63;;
77276;SDS011;66330;52.166;9.978;2023-02-15T17:51:15;18.30;;;14.97;;
77276;SDS011;66330;52.166;9.978;2023-02-15T17:53:42;16.10;;;13.83;;
77276;SDS011;66330;52.166;9.978;2023-02-15T17:56:27;12.63;;;11.30;;
77276;SDS011;66330;52.166;9.978;2023-02-15T17:58:52;16.10;;;13.10;;
77276;SDS011;66330;52.166;9.978;2023-02-15T18:01:18;14.60;;;12.33;;
77276;SDS011;66330;52.166;9.978;2023-02-15T18:04:04;19.47;;;15.23;;
77276;SDS011;66330;52.166;9.978;2023-02-15T18:06:53;16.80;;;13.30;;
77276;SDS011;66330;52.166;9.978;2023-02-15T18:09:37;17.67;;;14.50;;
77276;SDS011;66330;52.166;9.978;2023-02-15T18:12:23;16.13;;;14.43;;
77276;SDS011;66330;52.166;9.978;2023-02-15T18:14:54;17.77;;;14.00;;
77276;SDS011;66330;52.166;9.978;2023-02-15T18:17:21;16.93;;;14.50;;
77276;SDS011;66330;52.166;9.978;2023-02-15T18:19:52;15.30;;;13.40;;